createdAt,value
2018-07-24T00:03:50.244Z,20.00
2018-07-24T00:08:54.398Z,19.90
2018-07-24T00:13:58.478Z,19.80
2018-07-24T00:19:02.584Z,19.70
2018-07-24T00:24:07.119Z,19.80
2018-07-24T00:39:18.833Z,19.50
2018-07-24T00:54:30.562Z,19.30
2018-07-24T00:59:34.625Z,19.20
2018-07-24T01:04:38.855Z,19.10
2018-07-24T01:09:42.917Z,19.10
2018-07-24T01:14:46.971Z,19.20
2018-07-24T01:19:51.042Z,19.00
2018-07-24T01:24:55.100Z,19.10
2018-07-24T01:35:03.000Z,18.90
2018-07-24T01:40:07.095Z,18.80
2018-07-24T01:45:11.228Z,18.70
2018-07-24T01:50:15.360Z,18.80
2018-07-24T01:55:19.419Z,18.80
2018-07-24T02:05:27.360Z,18.70
2018-07-24T02:10:31.435Z,18.60
2018-07-24T02:15:35.493Z,18.40
2018-07-24T02:20:39.575Z,18.30
2018-07-24T02:25:43.684Z,18.30
2018-07-24T02:30:47.755Z,18.20
2018-07-24T02:35:51.836Z,18.20
2018-07-24T02:45:59.808Z,18.30
2018-07-24T02:56:07.743Z,18.30
2018-07-24T03:01:11.814Z,18.20
2018-07-24T03:06:15.970Z,18.30
2018-07-24T03:16:23.858Z,18.10
2018-07-24T03:26:35.716Z,18.00
2018-07-24T03:31:39.777Z,17.90
2018-07-24T03:36:43.893Z,17.80
2018-07-24T03:41:48.262Z,17.70
2018-07-24T03:51:56.077Z,17.70
2018-07-24T03:57:00.113Z,17.70
2018-07-24T04:07:08.001Z,17.60
2018-07-24T04:12:12.026Z,17.40
2018-07-24T04:17:16.086Z,17.50
2018-07-24T04:22:20.118Z,17.50
2018-07-24T04:27:24.154Z,17.70
2018-07-24T04:32:28.213Z,17.70
2018-07-24T04:37:32.328Z,17.80
2018-07-24T04:42:36.395Z,17.80
2018-07-24T04:47:40.775Z,17.80
2018-07-24T04:57:48.762Z,17.90
2018-07-24T05:02:52.926Z,18.00
2018-07-24T05:07:57.049Z,18.10
2018-07-24T05:18:05.992Z,18.40
2018-07-24T05:23:10.046Z,18.50
2018-07-24T05:28:14.077Z,18.70
2018-07-24T05:33:18.159Z,19.00
2018-07-24T05:38:22.181Z,19.50
2018-07-24T05:43:26.291Z,20.50
2018-07-24T05:48:30.344Z,21.40
2018-07-24T05:53:34.394Z,22.20
2018-07-24T05:58:38.431Z,22.90
2018-07-24T06:03:42.467Z,23.60
2018-07-24T06:13:55.346Z,24.90
2018-07-24T06:18:59.446Z,25.40
2018-07-24T06:29:07.267Z,26.30
2018-07-24T06:34:11.276Z,26.60
2018-07-24T06:44:19.299Z,26.80
2018-07-24T06:49:23.277Z,26.70
2018-07-24T06:54:27.305Z,27.50
2018-07-24T06:59:31.396Z,27.70
2018-07-24T07:04:35.420Z,28.10
2018-07-24T07:14:43.306Z,29.20
2018-07-24T07:19:47.378Z,28.80
2018-07-24T07:24:51.513Z,29.90
2018-07-24T07:29:55.550Z,30.40
2018-07-24T07:34:59.600Z,30.90
2018-07-24T07:40:03.637Z,29.50
2018-07-24T07:45:07.675Z,29.50
2018-07-24T08:00:19.312Z,30.50
2018-07-24T08:05:23.437Z,31.30
2018-07-24T08:10:27.485Z,31.40
2018-07-24T08:20:36.357Z,32.40
2018-07-24T08:25:40.398Z,33.30
2018-07-24T08:30:44.433Z,34.30
2018-07-24T08:35:48.479Z,34.90
2018-07-24T08:40:52.585Z,35.30
2018-07-24T08:45:56.612Z,34.30
2018-07-24T08:51:00.648Z,34.70
2018-07-24T08:56:04.689Z,35.50
2018-07-24T09:06:12.661Z,36.80
2018-07-24T09:11:17.286Z,36.80
2018-07-24T09:16:21.321Z,36.90
2018-07-24T09:21:25.358Z,35.50
2018-07-24T09:26:29.394Z,36.10
2018-07-24T09:36:37.342Z,36.90
2018-07-24T09:46:45.258Z,37.20
2018-07-24T09:51:49.389Z,37.10
2018-07-24T10:01:57.302Z,35.40
2018-07-24T10:07:01.314Z,35.60
2018-07-24T10:12:05.373Z,35.90
2018-07-24T10:17:09.366Z,35.40
2018-07-24T10:22:13.386Z,34.60
2018-07-24T10:32:21.232Z,33.70
2018-07-24T10:37:25.272Z,33.10
2018-07-24T10:42:29.289Z,33.40
2018-07-24T10:47:33.312Z,33.20
2018-07-24T10:52:37.373Z,33.00
2018-07-24T10:57:41.390Z,32.50
2018-07-24T11:02:45.409Z,32.20
2018-07-24T11:07:49.442Z,32.10
2018-07-24T11:12:53.567Z,32.00
2018-07-24T11:17:57.584Z,31.90
2018-07-24T11:23:01.829Z,31.90
2018-07-24T11:28:05.651Z,31.90
2018-07-24T11:53:24.954Z,31.20
2018-07-24T11:58:28.973Z,31.40
2018-07-24T12:18:44.401Z,31.50
2018-07-24T12:23:48.421Z,31.40
2018-07-24T12:28:52.484Z,31.50
2018-07-24T12:33:56.582Z,31.70
2018-07-24T12:54:12.254Z,31.90
2018-07-24T13:04:20.151Z,31.80
2018-07-24T13:14:28.045Z,31.90
2018-07-24T13:19:32.232Z,31.90
2018-07-24T13:24:36.306Z,31.90
2018-07-24T13:34:44.126Z,31.90
2018-07-24T13:39:48.202Z,31.90
2018-07-24T13:49:56.099Z,32.20
2018-07-24T13:55:00.183Z,32.00
2018-07-24T14:00:04.897Z,31.80
2018-07-24T14:05:08.962Z,31.70
2018-07-24T14:10:13.029Z,31.90
2018-07-24T14:25:24.765Z,32.00
2018-07-24T14:30:28.822Z,32.00
2018-07-24T14:35:33.067Z,32.10
2018-07-24T14:50:44.987Z,32.30
2018-07-24T14:55:49.979Z,32.10
2018-07-24T15:00:54.070Z,32.10
2018-07-24T15:16:05.938Z,32.20
2018-07-24T15:21:10.006Z,32.20
2018-07-24T15:26:14.062Z,32.20
2018-07-24T15:31:18.135Z,32.20
2018-07-24T15:36:22.276Z,32.10
2018-07-24T15:41:26.384Z,32.10
2018-07-24T15:51:34.359Z,32.20
2018-07-24T15:56:38.433Z,32.10
2018-07-24T16:01:42.510Z,32.00
2018-07-24T16:11:50.454Z,32.00
2018-07-24T16:16:54.531Z,31.90
2018-07-24T16:32:06.250Z,31.90
2018-07-24T16:42:14.199Z,31.90
2018-07-24T16:52:22.218Z,31.80
2018-07-24T16:57:26.290Z,31.80
2018-07-24T17:12:38.182Z,31.80
2018-07-24T17:17:42.258Z,31.70
2018-07-24T17:22:46.331Z,31.70
2018-07-24T17:37:58.418Z,31.40
2018-07-24T17:43:02.534Z,31.20
2018-07-24T17:48:07.251Z,31.00
2018-07-24T17:53:11.321Z,31.00
2018-07-24T17:58:15.386Z,30.90
2018-07-24T18:03:19.461Z,30.80
2018-07-24T18:13:27.398Z,30.60
2018-07-24T18:18:31.483Z,30.40
2018-07-24T18:28:40.209Z,30.20
2018-07-24T18:33:44.279Z,30.10
2018-07-24T18:38:48.359Z,30.00
2018-07-24T18:43:53.074Z,29.80
2018-07-24T18:48:57.152Z,29.60
2018-07-24T18:54:01.236Z,29.40
2018-07-24T18:59:05.862Z,29.20
2018-07-24T19:09:13.766Z,28.60
2018-07-24T19:14:18.275Z,28.40
2018-07-24T19:19:22.352Z,28.00
2018-07-24T19:24:26.419Z,27.80
2018-07-24T19:34:34.346Z,27.60
2018-07-24T19:39:38.415Z,27.40
2018-07-24T19:44:42.505Z,27.10
2018-07-24T19:49:46.642Z,26.90
2018-07-24T19:54:50.889Z,26.70
2018-07-24T19:59:54.969Z,26.50
2018-07-24T20:04:59.030Z,26.40
2018-07-24T20:10:03.130Z,26.40
2018-07-24T20:15:07.239Z,26.10
2018-07-24T20:30:19.154Z,25.70
2018-07-24T20:35:23.410Z,25.60
2018-07-24T20:40:27.382Z,25.50
2018-07-24T20:45:31.490Z,25.40
2018-07-24T20:55:39.402Z,25.20
2018-07-24T21:26:02.746Z,24.50
2018-07-24T21:31:07.026Z,24.40
2018-07-24T21:36:11.107Z,24.20
2018-07-24T21:41:15.210Z,24.20
2018-07-24T21:46:19.303Z,24.20
2018-07-24T21:51:23.407Z,24.10
2018-07-24T21:56:34.106Z,24.00
2018-07-24T22:11:45.914Z,23.80
2018-07-24T22:16:49.990Z,23.80
2018-07-24T22:26:57.923Z,23.60
2018-07-24T22:32:02.006Z,23.50
2018-07-24T22:37:06.116Z,23.40
2018-07-24T22:47:14.188Z,23.20
2018-07-24T22:52:18.286Z,23.10
2018-07-24T22:57:22.382Z,23.10
2018-07-24T23:02:26.474Z,22.90
2018-07-24T23:07:30.562Z,22.80
2018-07-24T23:12:34.634Z,22.80
2018-07-24T23:17:38.722Z,22.80
2018-07-24T23:22:42.791Z,22.70
2018-07-24T23:27:47.772Z,22.50
2018-07-24T23:37:55.694Z,22.30
2018-07-24T23:48:03.663Z,22.20
2018-07-24T23:53:07.738Z,22.10
2018-07-24T23:58:11.811Z,22.00
